sensor_id;sensor_type;location;lat;lon;timestamp;P1;durP1;ratioP1;P2;durP2;ratioP2
3789;SDS011;1910;49.042;9.028;2022-12-08T00:01:25;20.80;;;9.98;;
3789;SDS011;1910;49.042;9.028;2022-12-08T00:03:53;21.70;;;10.07;;
3789;SDS011;1910;49.042;9.028;2022-12-08T00:06:21;20.13;;;10.23;;
3789;SDS011;1910;49.042;9.028;2022-12-08T00:09:13;17.30;;;7.18;;
3789;SDS011;1910;49.042;9.028;2022-12-08T00:11:58;18.80;;;8.25;;
3789;SDS011;1910;49.042;9.028;2022-12-08T00:14:31;22.77;;;11.15;;
3789;SDS011;1910;49.042;9.028;2022-12-08T00:16:58;21.13;;;10.63;;
3789;SDS011;1910;49.042;9.028;2022-12-08T00:19:25;17.27;;;8.75;;
3789;SDS011;1910;49.042;9.028;2022-12-08T00:21:52;16.27;;;9.50;;
3789;SDS011;1910;49.042;9.028;2022-12-08T00:24:18;13.13;;;8.53;;
3789;SDS011;1910;49.042;9.028;2022-12-08T00:26:44;18.45;;;9.50;;
3789;SDS011;1910;49.042;9.028;2022-12-08T00:29:10;17.57;;;9.53;;
3789;SDS011;1910;49.042;9.028;2022-12-08T00:31:36;16.47;;;7.97;;
3789;SDS011;1910;49.042;9.028;2022-12-08T00:34:01;15.80;;;7.93;;
3789;SDS011;1910;49.042;9.028;2022-12-08T00:36:27;15.80;;;9.30;;
3789;SDS011;1910;49.042;9.028;2022-12-08T00:38:56;14.47;;;7.10;;
3789;SDS011;1910;49.042;9.028;2022-12-08T00:41:22;17.20;;;8.80;;
3789;SDS011;1910;49.042;9.028;2022-12-08T00:44:08;18.48;;;8.43;;
3789;SDS011;1910;49.042;9.028;2022-12-08T00:46:35;16.58;;;8.30;;
3789;SDS011;1910;49.042;9.028;2022-12-08T00:49:02;16.63;;;7.10;;
3789;SDS011;1910;49.042;9.028;2022-12-08T00:51:28;16.98;;;8.00;;
3789;SDS011;1910;49.042;9.028;2022-12-08T00:53:54;18.00;;;8.57;;
3789;SDS011;1910;49.042;9.028;2022-12-08T00:56:19;16.83;;;8.73;;
3789;SDS011;1910;49.042;9.028;2022-12-08T00:58:45;10.13;;;5.97;;
3789;SDS011;1910;49.042;9.028;2022-12-08T01:01:12;18.90;;;9.27;;
3789;SDS011;1910;49.042;9.028;2022-12-08T01:03:38;14.50;;;8.68;;
3789;SDS011;1910;49.042;9.028;2022-12-08T01:06:05;17.20;;;8.57;;
3789;SDS011;1910;49.042;9.028;2022-12-08T01:08:31;14.43;;;8.25;;
3789;SDS011;1910;49.042;9.028;2022-12-08T01:11:04;20.58;;;9.82;;
3789;SDS011;1910;49.042;9.028;2022-12-08T01:13:34;17.35;;;9.20;;
3789;SDS011;1910;49.042;9.028;2022-12-08T01:16:00;24.77;;;8.90;;
3789;SDS011;1910;49.042;9.028;2022-12-08T01:18:26;15.33;;;8.90;;
3789;SDS011;1910;49.042;9.028;2022-12-08T01:20:52;18.50;;;8.23;;
3789;SDS011;1910;49.042;9.028;2022-12-08T01:23:18;14.53;;;7.57;;
3789;SDS011;1910;49.042;9.028;2022-12-08T01:25:44;16.15;;;8.13;;
3789;SDS011;1910;49.042;9.028;2022-12-08T01:28:09;20.43;;;8.90;;
3789;SDS011;1910;49.042;9.028;2022-12-08T01:30:39;19.07;;;9.17;;
3789;SDS011;1910;49.042;9.028;2022-12-08T01:33:05;18.20;;;7.35;;
3789;SDS011;1910;49.042;9.028;2022-12-08T01:35:30;16.80;;;8.80;;
3789;SDS011;1910;49.042;9.028;2022-12-08T01:37:58;17.27;;;7.78;;
3789;SDS011;1910;49.042;9.028;2022-12-08T01:40:23;13.50;;;7.87;;
3789;SDS011;1910;49.042;9.028;2022-12-08T01:42:49;14.83;;;7.90;;
3789;SDS011;1910;49.042;9.028;2022-12-08T01:47:43;15.13;;;6.73;;
3789;SDS011;1910;49.042;9.028;2022-12-08T01:50:12;13.43;;;7.60;;
3789;SDS011;1910;49.042;9.028;2022-12-08T01:52:40;16.08;;;7.60;;
3789;SDS011;1910;49.042;9.028;2022-12-08T01:57:40;15.30;;;6.93;;
3789;SDS011;1910;49.042;9.028;2022-12-08T02:00:10;20.35;;;8.50;;
3789;SDS011;1910;49.042;9.028;2022-12-08T02:02:43;12.55;;;7.05;;
3789;SDS011;1910;49.042;9.028;2022-12-08T02:05:13;14.30;;;8.60;;
3789;SDS011;1910;49.042;9.028;2022-12-08T02:07:40;11.05;;;6.30;;
3789;SDS011;1910;49.042;9.028;2022-12-08T02:10:06;11.07;;;6.05;;
3789;SDS011;1910;49.042;9.028;2022-12-08T02:12:32;7.43;;;4.95;;
3789;SDS011;1910;49.042;9.028;2022-12-08T02:14:58;11.07;;;4.73;;
3789;SDS011;1910;49.042;9.028;2022-12-08T02:20:33;12.38;;;6.45;;
3789;SDS011;1910;49.042;9.028;2022-12-08T02:26:21;11.38;;;6.60;;
3789;SDS011;1910;49.042;9.028;2022-12-08T02:31:59;9.30;;;4.35;;
3789;SDS011;1910;49.042;9.028;2022-12-08T02:34:51;8.43;;;5.63;;
3789;SDS011;1910;49.042;9.028;2022-12-08T02:39:55;15.90;;;7.13;;
3789;SDS011;1910;49.042;9.028;2022-12-08T02:42:58;10.60;;;6.05;;
3789;SDS011;1910;49.042;9.028;2022-12-08T02:45:37;12.43;;;6.25;;
3789;SDS011;1910;49.042;9.028;2022-12-08T02:48:07;11.15;;;5.65;;
3789;SDS011;1910;49.042;9.028;2022-12-08T02:50:34;9.23;;;5.05;;
3789;SDS011;1910;49.042;9.028;2022-12-08T02:53:00;10.68;;;6.40;;
3789;SDS011;1910;49.042;9.028;2022-12-08T02:55:36;9.27;;;5.70;;
3789;SDS011;1910;49.042;9.028;2022-12-08T02:58:18;12.40;;;6.18;;
3789;SDS011;1910;49.042;9.028;2022-12-08T03:04:15;10.05;;;5.13;;
3789;SDS011;1910;49.042;9.028;2022-12-08T03:07:07;15.85;;;6.95;;
3789;SDS011;1910;49.042;9.028;2022-12-08T03:09:48;9.32;;;5.28;;
3789;SDS011;1910;49.042;9.028;2022-12-08T03:15:08;9.73;;;3.67;;
3789;SDS011;1910;49.042;9.028;2022-12-08T03:17:37;10.25;;;4.55;;
3789;SDS011;1910;49.042;9.028;2022-12-08T03:20:08;10.27;;;5.60;;
3789;SDS011;1910;49.042;9.028;2022-12-08T03:22:37;8.23;;;4.18;;
3789;SDS011;1910;49.042;9.028;2022-12-08T03:25:05;14.38;;;5.97;;
3789;SDS011;1910;49.042;9.028;2022-12-08T03:27:34;10.60;;;6.65;;
3789;SDS011;1910;49.042;9.028;2022-12-08T03:29:59;7.10;;;4.17;;
3789;SDS011;1910;49.042;9.028;2022-12-08T03:32:32;11.55;;;5.82;;
3789;SDS011;1910;49.042;9.028;2022-12-08T03:35:13;12.32;;;5.47;;
3789;SDS011;1910;49.042;9.028;2022-12-08T03:37:41;9.55;;;5.28;;
3789;SDS011;1910;49.042;9.028;2022-12-08T03:40:07;12.50;;;5.32;;
3789;SDS011;1910;49.042;9.028;2022-12-08T03:42:36;13.63;;;5.75;;
3789;SDS011;1910;49.042;9.028;2022-12-08T03:45:02;11.13;;;5.87;;
3789;SDS011;1910;49.042;9.028;2022-12-08T03:47:29;11.07;;;5.07;;
3789;SDS011;1910;49.042;9.028;2022-12-08T03:49:55;9.80;;;6.07;;
3789;SDS011;1910;49.042;9.028;2022-12-08T03:52:21;11.07;;;6.00;;
3789;SDS011;1910;49.042;9.028;2022-12-08T03:54:47;11.48;;;5.53;;
3789;SDS011;1910;49.042;9.028;2022-12-08T03:57:12;12.33;;;6.17;;
3789;SDS011;1910;49.042;9.028;2022-12-08T03:59:38;10.35;;;6.07;;
3789;SDS011;1910;49.042;9.028;2022-12-08T04:02:04;15.90;;;5.83;;
3789;SDS011;1910;49.042;9.028;2022-12-08T04:04:32;11.13;;;6.00;;
3789;SDS011;1910;49.042;9.028;2022-12-08T04:06:58;9.50;;;5.40;;
3789;SDS011;1910;49.042;9.028;2022-12-08T04:09:24;8.02;;;4.30;;
3789;SDS011;1910;49.042;9.028;2022-12-08T04:11:49;17.00;;;6.37;;
3789;SDS011;1910;49.042;9.028;2022-12-08T04:14:15;9.60;;;5.72;;
3789;SDS011;1910;49.042;9.028;2022-12-08T04:16:41;11.43;;;4.83;;
3789;SDS011;1910;49.042;9.028;2022-12-08T04:19:07;14.07;;;5.60;;
3789;SDS011;1910;49.042;9.028;2022-12-08T04:21:33;8.35;;;4.45;;
3789;SDS011;1910;49.042;9.028;2022-12-08T04:23:59;13.60;;;5.50;;
3789;SDS011;1910;49.042;9.028;2022-12-08T04:26:26;11.75;;;4.60;;
3789;SDS011;1910;49.042;9.028;2022-12-08T04:28:52;14.80;;;6.03;;
3789;SDS011;1910;49.042;9.028;2022-12-08T04:31:18;10.30;;;5.77;;
3789;SDS011;1910;49.042;9.028;2022-12-08T04:33:43;9.40;;;5.70;;
3789;SDS011;1910;49.042;9.028;2022-12-08T04:36:09;10.37;;;5.87;;
3789;SDS011;1910;49.042;9.028;2022-12-08T04:38:35;10.63;;;6.07;;
3789;SDS011;1910;49.042;9.028;2022-12-08T04:41:01;15.70;;;5.70;;
3789;SDS011;1910;49.042;9.028;2022-12-08T04:43:27;10.97;;;6.30;;
3789;SDS011;1910;49.042;9.028;2022-12-08T04:45:53;16.23;;;6.38;;
3789;SDS011;1910;49.042;9.028;2022-12-08T04:48:19;10.00;;;5.27;;
3789;SDS011;1910;49.042;9.028;2022-12-08T04:50:45;10.40;;;5.43;;
3789;SDS011;1910;49.042;9.028;2022-12-08T04:53:11;11.70;;;5.33;;
3789;SDS011;1910;49.042;9.028;2022-12-08T04:55:38;8.82;;;5.72;;
3789;SDS011;1910;49.042;9.028;2022-12-08T04:58:05;8.27;;;5.05;;
3789;SDS011;1910;49.042;9.028;2022-12-08T05:00:31;12.80;;;5.47;;
3789;SDS011;1910;49.042;9.028;2022-12-08T05:02:56;8.87;;;5.57;;
3789;SDS011;1910;49.042;9.028;2022-12-08T05:05:22;13.13;;;6.80;;
3789;SDS011;1910;49.042;9.028;2022-12-08T05:07:48;10.20;;;5.32;;
3789;SDS011;1910;49.042;9.028;2022-12-08T05:10:14;9.30;;;5.53;;
3789;SDS011;1910;49.042;9.028;2022-12-08T05:12:40;10.30;;;5.00;;
3789;SDS011;1910;49.042;9.028;2022-12-08T05:15:11;10.23;;;5.07;;
3789;SDS011;1910;49.042;9.028;2022-12-08T05:17:37;6.28;;;3.97;;
3789;SDS011;1910;49.042;9.028;2022-12-08T05:22:32;11.05;;;6.80;;
3789;SDS011;1910;49.042;9.028;2022-12-08T05:24:58;13.20;;;6.50;;
3789;SDS011;1910;49.042;9.028;2022-12-08T05:27:23;14.33;;;5.90;;
3789;SDS011;1910;49.042;9.028;2022-12-08T05:29:49;10.83;;;5.30;;
3789;SDS011;1910;49.042;9.028;2022-12-08T05:32:15;10.90;;;5.63;;
3789;SDS011;1910;49.042;9.028;2022-12-08T05:34:41;8.60;;;5.63;;
3789;SDS011;1910;49.042;9.028;2022-12-08T05:37:06;9.80;;;5.70;;
3789;SDS011;1910;49.042;9.028;2022-12-08T05:39:32;12.63;;;6.20;;
3789;SDS011;1910;49.042;9.028;2022-12-08T05:41:58;11.10;;;5.80;;
3789;SDS011;1910;49.042;9.028;2022-12-08T05:44:24;8.90;;;5.30;;
3789;SDS011;1910;49.042;9.028;2022-12-08T05:46:50;11.38;;;5.53;;
3789;SDS011;1910;49.042;9.028;2022-12-08T05:49:16;12.75;;;6.13;;
3789;SDS011;1910;49.042;9.028;2022-12-08T05:51:42;10.20;;;5.97;;
3789;SDS011;1910;49.042;9.028;2022-12-08T05:54:08;10.47;;;5.77;;
3789;SDS011;1910;49.042;9.028;2022-12-08T05:56:34;16.77;;;6.83;;
3789;SDS011;1910;49.042;9.028;2022-12-08T05:59:00;15.60;;;7.00;;
3789;SDS011;1910;49.042;9.028;2022-12-08T06:01:26;17.50;;;6.77;;
3789;SDS011;1910;49.042;9.028;2022-12-08T06:03:54;16.15;;;7.30;;
3789;SDS011;1910;49.042;9.028;2022-12-08T06:06:21;11.10;;;6.40;;
3789;SDS011;1910;49.042;9.028;2022-12-08T06:08:46;12.27;;;6.90;;
3789;SDS011;1910;49.042;9.028;2022-12-08T06:11:16;12.93;;;6.10;;
3789;SDS011;1910;49.042;9.028;2022-12-08T06:13:50;14.27;;;6.22;;
3789;SDS011;1910;49.042;9.028;2022-12-08T06:16:16;11.20;;;6.15;;
3789;SDS011;1910;49.042;9.028;2022-12-08T06:18:44;14.15;;;6.95;;
3789;SDS011;1910;49.042;9.028;2022-12-08T06:21:10;11.70;;;6.07;;
3789;SDS011;1910;49.042;9.028;2022-12-08T06:23:37;12.82;;;6.72;;
3789;SDS011;1910;49.042;9.028;2022-12-08T06:26:07;11.60;;;5.97;;
3789;SDS011;1910;49.042;9.028;2022-12-08T06:28:35;14.23;;;5.57;;
3789;SDS011;1910;49.042;9.028;2022-12-08T06:31:13;12.57;;;6.22;;
3789;SDS011;1910;49.042;9.028;2022-12-08T06:33:40;11.32;;;6.25;;
3789;SDS011;1910;49.042;9.028;2022-12-08T06:36:06;11.17;;;5.93;;
3789;SDS011;1910;49.042;9.028;2022-12-08T06:38:33;15.82;;;5.95;;
3789;SDS011;1910;49.042;9.028;2022-12-08T06:40:58;11.15;;;5.55;;
3789;SDS011;1910;49.042;9.028;2022-12-08T06:43:25;10.82;;;6.05;;
3789;SDS011;1910;49.042;9.028;2022-12-08T06:45:51;13.87;;;7.20;;
3789;SDS011;1910;49.042;9.028;2022-12-08T06:48:17;9.77;;;5.70;;
3789;SDS011;1910;49.042;9.028;2022-12-08T06:50:43;11.87;;;6.47;;
3789;SDS011;1910;49.042;9.028;2022-12-08T06:53:12;10.30;;;6.90;;
3789;SDS011;1910;49.042;9.028;2022-12-08T06:55:46;13.70;;;6.32;;
3789;SDS011;1910;49.042;9.028;2022-12-08T06:58:15;12.65;;;7.00;;
3789;SDS011;1910;49.042;9.028;2022-12-08T07:00:41;10.83;;;7.30;;
3789;SDS011;1910;49.042;9.028;2022-12-08T07:03:07;16.30;;;7.70;;
3789;SDS011;1910;49.042;9.028;2022-12-08T07:05:34;11.50;;;6.45;;
3789;SDS011;1910;49.042;9.028;2022-12-08T07:08:00;14.23;;;7.55;;
3789;SDS011;1910;49.042;9.028;2022-12-08T07:10:26;12.03;;;6.20;;
3789;SDS011;1910;49.042;9.028;2022-12-08T07:12:51;9.60;;;5.73;;
3789;SDS011;1910;49.042;9.028;2022-12-08T07:15:18;11.05;;;5.60;;
3789;SDS011;1910;49.042;9.028;2022-12-08T07:17:44;12.07;;;5.80;;
3789;SDS011;1910;49.042;9.028;2022-12-08T07:20:10;14.37;;;7.07;;
3789;SDS011;1910;49.042;9.028;2022-12-08T07:22:35;10.47;;;6.33;;
3789;SDS011;1910;49.042;9.028;2022-12-08T07:25:01;10.17;;;6.00;;
3789;SDS011;1910;49.042;9.028;2022-12-08T07:27:27;14.00;;;6.50;;
3789;SDS011;1910;49.042;9.028;2022-12-08T07:29:53;11.07;;;7.40;;
3789;SDS011;1910;49.042;9.028;2022-12-08T07:32:19;10.03;;;6.07;;
3789;SDS011;1910;49.042;9.028;2022-12-08T07:34:44;11.43;;;6.43;;
3789;SDS011;1910;49.042;9.028;2022-12-08T07:37:13;9.00;;;6.20;;
3789;SDS011;1910;49.042;9.028;2022-12-08T07:39:39;13.82;;;7.05;;
3789;SDS011;1910;49.042;9.028;2022-12-08T07:42:04;12.37;;;6.10;;
3789;SDS011;1910;49.042;9.028;2022-12-08T07:44:30;9.77;;;5.60;;
3789;SDS011;1910;49.042;9.028;2022-12-08T07:46:56;10.93;;;5.57;;
3789;SDS011;1910;49.042;9.028;2022-12-08T07:49:22;11.40;;;6.30;;
3789;SDS011;1910;49.042;9.028;2022-12-08T07:51:48;8.43;;;5.50;;
3789;SDS011;1910;49.042;9.028;2022-12-08T07:54:14;9.10;;;6.17;;
3789;SDS011;1910;49.042;9.028;2022-12-08T07:56:40;10.70;;;7.03;;
3789;SDS011;1910;49.042;9.028;2022-12-08T07:59:05;11.37;;;5.87;;
3789;SDS011;1910;49.042;9.028;2022-12-08T08:01:32;13.05;;;5.95;;
3789;SDS011;1910;49.042;9.028;2022-12-08T08:03:59;8.80;;;5.50;;
3789;SDS011;1910;49.042;9.028;2022-12-08T08:06:26;11.48;;;6.25;;
3789;SDS011;1910;49.042;9.028;2022-12-08T08:08:52;10.48;;;5.90;;
3789;SDS011;1910;49.042;9.028;2022-12-08T08:11:18;12.07;;;5.55;;
3789;SDS011;1910;49.042;9.028;2022-12-08T08:13:48;7.38;;;5.03;;
3789;SDS011;1910;49.042;9.028;2022-12-08T08:16:14;9.75;;;6.50;;
3789;SDS011;1910;49.042;9.028;2022-12-08T08:18:40;6.10;;;5.07;;
3789;SDS011;1910;49.042;9.028;2022-12-08T08:21:07;9.38;;;5.85;;
3789;SDS011;1910;49.042;9.028;2022-12-08T08:23:33;13.53;;;5.60;;
3789;SDS011;1910;49.042;9.028;2022-12-08T08:25:59;13.70;;;5.80;;
3789;SDS011;1910;49.042;9.028;2022-12-08T08:28:26;7.47;;;4.80;;
3789;SDS011;1910;49.042;9.028;2022-12-08T08:30:55;9.45;;;5.80;;
3789;SDS011;1910;49.042;9.028;2022-12-08T08:33:21;7.65;;;5.00;;
3789;SDS011;1910;49.042;9.028;2022-12-08T08:35:47;11.13;;;5.60;;
3789;SDS011;1910;49.042;9.028;2022-12-08T08:38:13;11.93;;;5.95;;
3789;SDS011;1910;49.042;9.028;2022-12-08T08:40:39;6.35;;;5.15;;
3789;SDS011;1910;49.042;9.028;2022-12-08T08:43:06;12.80;;;5.70;;
3789;SDS011;1910;49.042;9.028;2022-12-08T08:45:33;15.43;;;6.57;;
3789;SDS011;1910;49.042;9.028;2022-12-08T08:47:59;11.93;;;6.32;;
3789;SDS011;1910;49.042;9.028;2022-12-08T08:50:25;9.30;;;5.72;;
3789;SDS011;1910;49.042;9.028;2022-12-08T08:52:51;12.18;;;6.35;;
3789;SDS011;1910;49.042;9.028;2022-12-08T08:55:17;10.93;;;6.70;;
3789;SDS011;1910;49.042;9.028;2022-12-08T08:57:43;8.73;;;4.80;;
3789;SDS011;1910;49.042;9.028;2022-12-08T09:00:14;7.67;;;4.43;;
3789;SDS011;1910;49.042;9.028;2022-12-08T09:02:40;7.30;;;4.80;;
3789;SDS011;1910;49.042;9.028;2022-12-08T09:05:06;7.43;;;3.93;;
3789;SDS011;1910;49.042;9.028;2022-12-08T09:07:32;5.68;;;3.70;;
3789;SDS011;1910;49.042;9.028;2022-12-08T09:09:58;6.13;;;4.57;;
3789;SDS011;1910;49.042;9.028;2022-12-08T09:12:24;5.23;;;3.70;;
3789;SDS011;1910;49.042;9.028;2022-12-08T09:14:50;5.80;;;3.70;;
3789;SDS011;1910;49.042;9.028;2022-12-08T09:17:16;5.43;;;3.60;;
3789;SDS011;1910;49.042;9.028;2022-12-08T09:19:42;4.80;;;3.30;;
3789;SDS011;1910;49.042;9.028;2022-12-08T09:22:08;5.72;;;2.58;;
3789;SDS011;1910;49.042;9.028;2022-12-08T09:24:34;4.70;;;3.60;;
3789;SDS011;1910;49.042;9.028;2022-12-08T09:27:00;7.60;;;3.03;;
3789;SDS011;1910;49.042;9.028;2022-12-08T09:29:25;6.27;;;4.23;;
3789;SDS011;1910;49.042;9.028;2022-12-08T09:31:51;6.17;;;3.27;;
3789;SDS011;1910;49.042;9.028;2022-12-08T09:34:18;6.50;;;3.50;;
3789;SDS011;1910;49.042;9.028;2022-12-08T09:36:44;6.33;;;3.70;;
3789;SDS011;1910;49.042;9.028;2022-12-08T09:39:09;3.93;;;2.80;;
3789;SDS011;1910;49.042;9.028;2022-12-08T09:41:42;8.03;;;4.40;;
3789;SDS011;1910;49.042;9.028;2022-12-08T09:46:56;6.63;;;4.25;;
3789;SDS011;1910;49.042;9.028;2022-12-08T09:49:29;5.85;;;3.70;;
3789;SDS011;1910;49.042;9.028;2022-12-08T09:52:03;4.95;;;3.33;;
3789;SDS011;1910;49.042;9.028;2022-12-08T09:54:35;7.60;;;4.63;;
3789;SDS011;1910;49.042;9.028;2022-12-08T09:57:02;6.33;;;3.70;;
3789;SDS011;1910;49.042;9.028;2022-12-08T09:59:32;6.55;;;5.15;;
3789;SDS011;1910;49.042;9.028;2022-12-08T10:01:59;8.45;;;4.65;;
3789;SDS011;1910;49.042;9.028;2022-12-08T10:09:48;5.43;;;4.10;;
3789;SDS011;1910;49.042;9.028;2022-12-08T10:12:39;8.77;;;3.20;;
3789;SDS011;1910;49.042;9.028;2022-12-08T10:20:44;8.65;;;4.25;;
3789;SDS011;1910;49.042;9.028;2022-12-08T10:25:38;6.03;;;4.60;;
3789;SDS011;1910;49.042;9.028;2022-12-08T10:28:10;5.70;;;3.45;;
3789;SDS011;1910;49.042;9.028;2022-12-08T10:30:37;7.20;;;3.93;;
3789;SDS011;1910;49.042;9.028;2022-12-08T10:33:03;8.85;;;4.72;;
3789;SDS011;1910;49.042;9.028;2022-12-08T10:35:51;8.20;;;4.97;;
3789;SDS011;1910;49.042;9.028;2022-12-08T10:40:55;8.85;;;4.55;;
3789;SDS011;1910;49.042;9.028;2022-12-08T10:43:27;6.30;;;4.00;;
3789;SDS011;1910;49.042;9.028;2022-12-08T10:45:52;13.13;;;4.83;;
3789;SDS011;1910;49.042;9.028;2022-12-08T10:48:20;6.38;;;4.55;;
3789;SDS011;1910;49.042;9.028;2022-12-08T10:50:53;12.35;;;4.50;;
3789;SDS011;1910;49.042;9.028;2022-12-08T10:53:27;10.65;;;4.55;;
3789;SDS011;1910;49.042;9.028;2022-12-08T10:58:36;8.82;;;4.35;;
3789;SDS011;1910;49.042;9.028;2022-12-08T11:01:10;5.82;;;3.78;;
3789;SDS011;1910;49.042;9.028;2022-12-08T11:08:57;8.43;;;3.55;;
3789;SDS011;1910;49.042;9.028;2022-12-08T11:14:24;5.55;;;4.18;;
3789;SDS011;1910;49.042;9.028;2022-12-08T11:16:55;6.72;;;3.90;;
3789;SDS011;1910;49.042;9.028;2022-12-08T11:19:31;15.60;;;5.20;;
3789;SDS011;1910;49.042;9.028;2022-12-08T11:22:07;8.73;;;3.95;;
3789;SDS011;1910;49.042;9.028;2022-12-08T11:27:36;4.93;;;3.78;;
3789;SDS011;1910;49.042;9.028;2022-12-08T11:33:05;6.13;;;4.40;;
3789;SDS011;1910;49.042;9.028;2022-12-08T11:35:41;8.02;;;3.55;;
3789;SDS011;1910;49.042;9.028;2022-12-08T11:38:19;6.53;;;3.83;;
3789;SDS011;1910;49.042;9.028;2022-12-08T11:40:46;10.02;;;4.30;;
3789;SDS011;1910;49.042;9.028;2022-12-08T11:43:29;8.18;;;3.70;;
3789;SDS011;1910;49.042;9.028;2022-12-08T11:46:00;8.13;;;4.13;;
3789;SDS011;1910;49.042;9.028;2022-12-08T11:51:18;6.97;;;3.28;;
3789;SDS011;1910;49.042;9.028;2022-12-08T11:54:14;9.85;;;5.40;;
3789;SDS011;1910;49.042;9.028;2022-12-08T11:56:55;6.60;;;4.13;;
3789;SDS011;1910;49.042;9.028;2022-12-08T11:59:31;7.18;;;4.80;;
3789;SDS011;1910;49.042;9.028;2022-12-08T12:01:58;9.20;;;5.30;;
3789;SDS011;1910;49.042;9.028;2022-12-08T12:04:32;5.88;;;3.65;;
3789;SDS011;1910;49.042;9.028;2022-12-08T12:17:51;8.15;;;4.70;;
3789;SDS011;1910;49.042;9.028;2022-12-08T12:25:52;13.18;;;5.63;;
3789;SDS011;1910;49.042;9.028;2022-12-08T12:28:23;10.75;;;5.78;;
3789;SDS011;1910;49.042;9.028;2022-12-08T12:31:02;8.88;;;4.95;;
3789;SDS011;1910;49.042;9.028;2022-12-08T12:33:32;9.23;;;5.10;;
3789;SDS011;1910;49.042;9.028;2022-12-08T12:36:01;7.93;;;5.60;;
3789;SDS011;1910;49.042;9.028;2022-12-08T12:38:30;10.80;;;6.32;;
3789;SDS011;1910;49.042;9.028;2022-12-08T12:41:22;9.48;;;6.22;;
3789;SDS011;1910;49.042;9.028;2022-12-08T12:46:51;7.65;;;5.22;;
3789;SDS011;1910;49.042;9.028;2022-12-08T12:57:15;15.00;;;6.72;;
3789;SDS011;1910;49.042;9.028;2022-12-08T12:59:51;10.07;;;5.15;;
3789;SDS011;1910;49.042;9.028;2022-12-08T13:02:45;12.10;;;6.03;;
3789;SDS011;1910;49.042;9.028;2022-12-08T13:05:30;9.23;;;5.13;;
3789;SDS011;1910;49.042;9.028;2022-12-08T13:08:07;7.90;;;5.15;;
3789;SDS011;1910;49.042;9.028;2022-12-08T13:10:57;7.38;;;5.63;;
3789;SDS011;1910;49.042;9.028;2022-12-08T13:13:26;13.32;;;6.43;;
3789;SDS011;1910;49.042;9.028;2022-12-08T13:15:53;9.70;;;6.10;;
3789;SDS011;1910;49.042;9.028;2022-12-08T13:18:41;14.07;;;6.55;;
3789;SDS011;1910;49.042;9.028;2022-12-08T13:21:53;13.70;;;6.25;;
3789;SDS011;1910;49.042;9.028;2022-12-08T13:29:31;12.68;;;5.32;;
3789;SDS011;1910;49.042;9.028;2022-12-08T13:34:43;11.13;;;6.53;;
3789;SDS011;1910;49.042;9.028;2022-12-08T13:37:17;12.43;;;7.28;;
3789;SDS011;1910;49.042;9.028;2022-12-08T13:40:08;8.48;;;5.10;;
3789;SDS011;1910;49.042;9.028;2022-12-08T13:45:29;19.20;;;11.07;;
3789;SDS011;1910;49.042;9.028;2022-12-08T13:48:02;13.65;;;7.45;;
3789;SDS011;1910;49.042;9.028;2022-12-08T13:50:35;10.68;;;6.32;;
3789;SDS011;1910;49.042;9.028;2022-12-08T13:53:43;11.88;;;6.07;;
3789;SDS011;1910;49.042;9.028;2022-12-08T13:56:03;9.10;;;5.97;;
3789;SDS011;1910;49.042;9.028;2022-12-08T13:58:32;10.25;;;5.40;;
3789;SDS011;1910;49.042;9.028;2022-12-08T14:16:52;12.85;;;6.40;;
3789;SDS011;1910;49.042;9.028;2022-12-08T14:19:25;6.82;;;4.93;;
3789;SDS011;1910;49.042;9.028;2022-12-08T14:21:54;15.63;;;7.47;;
3789;SDS011;1910;49.042;9.028;2022-12-08T14:24:21;11.00;;;7.43;;
3789;SDS011;1910;49.042;9.028;2022-12-08T14:26:49;10.13;;;6.03;;
3789;SDS011;1910;49.042;9.028;2022-12-08T14:29:28;7.40;;;5.28;;
3789;SDS011;1910;49.042;9.028;2022-12-08T14:31:56;9.90;;;5.50;;
3789;SDS011;1910;49.042;9.028;2022-12-08T14:34:22;10.77;;;5.68;;
3789;SDS011;1910;49.042;9.028;2022-12-08T14:36:47;14.20;;;6.33;;
3789;SDS011;1910;49.042;9.028;2022-12-08T14:39:13;11.82;;;6.85;;
3789;SDS011;1910;49.042;9.028;2022-12-08T14:41:39;15.77;;;7.27;;
3789;SDS011;1910;49.042;9.028;2022-12-08T14:44:13;14.60;;;6.90;;
3789;SDS011;1910;49.042;9.028;2022-12-08T14:49:33;10.88;;;6.00;;
3789;SDS011;1910;49.042;9.028;2022-12-08T14:52:01;9.88;;;6.50;;
3789;SDS011;1910;49.042;9.028;2022-12-08T14:54:32;10.65;;;6.75;;
3789;SDS011;1910;49.042;9.028;2022-12-08T14:56:59;11.87;;;7.13;;
3789;SDS011;1910;49.042;9.028;2022-12-08T14:59:26;13.38;;;6.45;;
3789;SDS011;1910;49.042;9.028;2022-12-08T15:02:07;13.60;;;6.30;;
3789;SDS011;1910;49.042;9.028;2022-12-08T15:04:39;11.70;;;7.07;;
3789;SDS011;1910;49.042;9.028;2022-12-08T15:09:42;11.77;;;7.90;;
3789;SDS011;1910;49.042;9.028;2022-12-08T15:17:33;16.38;;;8.23;;
3789;SDS011;1910;49.042;9.028;2022-12-08T15:20:52;11.95;;;7.53;;
3789;SDS011;1910;49.042;9.028;2022-12-08T15:23:04;9.40;;;6.35;;
3789;SDS011;1910;49.042;9.028;2022-12-08T15:25:41;10.82;;;6.32;;
3789;SDS011;1910;49.042;9.028;2022-12-08T15:28:07;13.47;;;6.43;;
3789;SDS011;1910;49.042;9.028;2022-12-08T15:30:36;12.65;;;6.30;;
3789;SDS011;1910;49.042;9.028;2022-12-08T15:33:02;10.27;;;5.93;;
3789;SDS011;1910;49.042;9.028;2022-12-08T15:35:27;11.10;;;6.90;;
3789;SDS011;1910;49.042;9.028;2022-12-08T15:37:53;14.37;;;7.50;;
3789;SDS011;1910;49.042;9.028;2022-12-08T15:40:20;16.03;;;6.97;;
3789;SDS011;1910;49.042;9.028;2022-12-08T15:42:51;12.40;;;6.72;;
3789;SDS011;1910;49.042;9.028;2022-12-08T15:45:17;13.38;;;6.60;;
3789;SDS011;1910;49.042;9.028;2022-12-08T15:47:54;12.13;;;7.43;;
3789;SDS011;1910;49.042;9.028;2022-12-08T15:50:20;13.43;;;7.57;;
3789;SDS011;1910;49.042;9.028;2022-12-08T15:52:47;9.35;;;6.80;;
3789;SDS011;1910;49.042;9.028;2022-12-08T15:55:15;10.32;;;6.30;;
3789;SDS011;1910;49.042;9.028;2022-12-08T15:57:53;12.00;;;6.78;;
3789;SDS011;1910;49.042;9.028;2022-12-08T16:02:50;9.27;;;7.18;;
3789;SDS011;1910;49.042;9.028;2022-12-08T16:05:16;8.43;;;5.77;;
3789;SDS011;1910;49.042;9.028;2022-12-08T16:07:42;11.83;;;6.43;;
3789;SDS011;1910;49.042;9.028;2022-12-08T16:13:00;13.57;;;6.90;;
3789;SDS011;1910;49.042;9.028;2022-12-08T16:15:44;10.35;;;6.10;;
3789;SDS011;1910;49.042;9.028;2022-12-08T16:18:14;8.67;;;6.10;;
3789;SDS011;1910;49.042;9.028;2022-12-08T16:20:41;10.82;;;6.20;;
3789;SDS011;1910;49.042;9.028;2022-12-08T16:23:07;9.73;;;5.28;;
3789;SDS011;1910;49.042;9.028;2022-12-08T16:25:33;8.60;;;5.70;;
3789;SDS011;1910;49.042;9.028;2022-12-08T16:27:58;15.13;;;6.90;;
3789;SDS011;1910;49.042;9.028;2022-12-08T16:30:24;10.50;;;5.60;;
3789;SDS011;1910;49.042;9.028;2022-12-08T16:32:50;13.38;;;5.47;;
3789;SDS011;1910;49.042;9.028;2022-12-08T16:35:15;9.17;;;5.07;;
3789;SDS011;1910;49.042;9.028;2022-12-08T16:37:41;8.40;;;6.03;;
3789;SDS011;1910;49.042;9.028;2022-12-08T16:40:07;9.80;;;5.87;;
3789;SDS011;1910;49.042;9.028;2022-12-08T16:42:33;35.80;;;13.95;;
3789;SDS011;1910;49.042;9.028;2022-12-08T16:47:44;38.65;;;17.00;;
3789;SDS011;1910;49.042;9.028;2022-12-08T16:50:16;27.52;;;11.43;;
3789;SDS011;1910;49.042;9.028;2022-12-08T16:52:56;9.57;;;5.65;;
3789;SDS011;1910;49.042;9.028;2022-12-08T16:55:26;16.52;;;7.65;;
3789;SDS011;1910;49.042;9.028;2022-12-08T16:57:52;16.23;;;6.85;;
3789;SDS011;1910;49.042;9.028;2022-12-08T17:00:18;9.50;;;5.97;;
3789;SDS011;1910;49.042;9.028;2022-12-08T17:02:46;9.00;;;4.80;;
3789;SDS011;1910;49.042;9.028;2022-12-08T17:05:12;7.50;;;4.30;;
3789;SDS011;1910;49.042;9.028;2022-12-08T17:07:39;10.05;;;5.35;;
3789;SDS011;1910;49.042;9.028;2022-12-08T17:10:06;9.23;;;4.70;;
3789;SDS011;1910;49.042;9.028;2022-12-08T17:12:33;6.75;;;4.20;;
3789;SDS011;1910;49.042;9.028;2022-12-08T17:15:05;11.13;;;5.03;;
3789;SDS011;1910;49.042;9.028;2022-12-08T17:17:33;9.80;;;6.25;;
3789;SDS011;1910;49.042;9.028;2022-12-08T17:20:03;27.43;;;13.40;;
3789;SDS011;1910;49.042;9.028;2022-12-08T17:22:32;23.55;;;12.13;;
3789;SDS011;1910;49.042;9.028;2022-12-08T17:24:59;12.93;;;7.57;;
3789;SDS011;1910;49.042;9.028;2022-12-08T17:27:28;9.32;;;5.28;;
3789;SDS011;1910;49.042;9.028;2022-12-08T17:29:53;11.90;;;8.57;;
3789;SDS011;1910;49.042;9.028;2022-12-08T17:32:19;9.97;;;6.27;;
3789;SDS011;1910;49.042;9.028;2022-12-08T17:34:46;7.55;;;4.45;;